Terminal Aerodrome Forecast
Issued by NWS

Home | Current Version | Previous Version | Text Only | Print | Product List | Glossary On
Versions: 1 2 3 4 5 6 7 8 9 10 11 12 13 14 15 16 17 18 19 20 21 22 23 24 25 26 27 28 29 30 31 32 33 34 35 36 37 38 39 40 41 42 43 44 45 46 47 48 49
000
FTAK31 PANC 251745
TAFAHO
TAF
PAHO 251745Z 2518/2618 20018G28KT P6SM VCSH BKN025
     FM252100 23012G22KT P6SM VCSH SCT025 BKN040
     FM260200 22008KT P6SM VCSH SCT030 BKN060
     FM261200 24005KT P6SM SCT060 BKN100=

USA.gov is the U.S. government's official web portal to all federal, state and local government web resources and services.